Station: Willis Island  

  Atmospheric Gas Attenuation - ITU Rec 676-11   ----------------- dB/100km -----------------
Date Time Temp RH % AH g/m3 Dew Point Wind Direction Speed kph Gust kph Barometer mB Rainfall Since 9am 24GHz 47GHz 76GHz 122GHz 134GHz 241GHz
08/05 12:40 27.4 81 21.31 23.8 35 39 1012.9 0 45.6 43.3 85.6 226.7 253.1 879.5
08/05 12:30 27.4 80 21.05 23.6 37 44 1012.9 0 45.0 42.8 84.4 223.4 249.0 865.3
08/05 12:20 27.9 81 21.91 24.3 33 39 1013.1 0 46.8 44.2 88.0 233.0 260.9 906.7
08/05 12:10 27.8 80 21.52 24 33 37 1013.2 0 46.0 43.5 86.2 228.2 255.1 886.5
08/05 12:00 28.1 81 22.15 24.5 37 43 1013.3 0 47.3 44.5 88.9 235.5 264.1 917.7
08/05 11:50 27.3 81 21.2 23.7 41 43 1013.5 0 45.4 43.1 85.3 225.7 251.8 875.0
08/05 11:40 27.3 81 21.2 23.7 39 41 1013.5 0 45.4 43.1 85.3 225.7 251.8 875.0
08/05 11:30 27.5 82 21.7 24.1 37 43 1013.7 0 46.4 44.0 87.5 231.6 259.1 900.3
08/05 11:20 27.4 81 21.31 23.8 37 41 1014 0 45.6 43.3 85.7 226.9 253.3 880.2
08/05 11:10 27.6 81 21.55 24 37 41 1014 0 46.1 43.7 86.6 229.4 256.4 891.0
08/05 11:00 27.5 81 21.43 23.9 35 41 1014.1 0 45.8 43.5 86.2 228.1 254.9 885.7
08/05 10:50 28.5 80 22.36 24.7 33 37 1014.2 0 47.7 44.8 89.6 237.1 266.1 925.0
08/05 10:40 27.5 80 21.17 23.7 37 41 1014.2 0 45.3 43.0 84.9 224.8 250.8 871.5
08/05 10:30 27.9 80 21.64 24.1 39 43 1014.3 0 46.2 43.7 86.8 229.7 256.8 892.6
08/05 10:20 27.3 80 20.93 23.5 41 44 1014.5 0 44.8 42.6 84.0 222.4 247.7 860.8
08/05 10:10 27.2 81 21.08 23.7 37 41 1014.6 0 45.1 43.0 84.9 224.6 250.4 870.2
08/05 10:00 27.1 81 20.96 23.6 39 44 1014.6 0 44.9 42.8 84.4 223.4 248.9 864.8
08/05 09:50 26.9 81 20.73 23.4 39 41 1014.7 0 44.4 42.5 83.5 221.0 245.9 854.6
08/05 09:40 26.8 81 20.62 23.3 41 44 1014.7 0 44.2 42.3 83.1 219.9 244.5 849.7
08/05 09:30 26.9 83 21.24 23.8 37 44 1014.6 0 45.5 43.5 86.0 227.6 254.0 882.5
08/05 09:20 26.9 82 20.99 23.6 37 43 1014.5 0 45.0 43.0 84.8 224.3 250.0 868.7
08/05 09:10 27 82 21.1 23.7 35 39 1014.3 0 45.2 43.1 85.2 225.4 251.4 873.5
08/05 09:00 26.8 82 20.87 23.5 37 44 1014.2 0 44.7 42.8 84.3 223.0 248.4 863.1
08/05 08:50 26.9 83 21.24 23.8 37 39 1014.1 0.2 45.5 43.4 86.0 227.5 253.9 882.2
08/05 08:40 26.8 82 20.87 23.5 39 46 1014.1 0.2 44.7 42.8 84.3 223.0 248.4 863.1
08/05 08:30 26.8 84 21.38 23.9 41 46 1013.8 0.2 45.8 43.8 86.7 229.6 256.4 891.0
08/05 08:20 26.7 83 21.01 23.6 39 44 1013.8 0.2 45.0 43.1 85.0 225.1 250.9 871.7
08/05 08:10 26.6 84 21.15 23.7 37 39 1013.6 0.2 45.3 43.4 85.8 227.2 253.4 880.5
08/05 08:00 26.6 84 21.15 23.7 39 44 1013.6 0.2 45.3 43.4 85.8 227.2 253.4 880.5
08/05 07:50 26.5 84 21.03 23.6 35 41 1013.7 0.2 45.1 43.2 85.4 225.9 251.9 875.1
08/05 07:40 26.6 84 21.15 23.7 35 39 1013.7 0.2 45.3 43.4 85.8 227.2 253.4 880.6
08/05 07:30 26.4 84 20.91 23.5 39 46 1013.5 0.2 44.9 43.0 84.9 224.6 250.3 869.5
08/05 07:20 26.5 85 21.28 23.8 41 44 1013.3 0.2 45.6 43.7 86.6 229.1 255.8 888.7
08/05 07:10 26.4 85 21.16 23.7 41 44 1013.2 0.2 45.4 43.5 86.1 227.8 254.2 883.2
08/05 07:00 26.4 85 21.16 23.7 39 46 1013 0.2 45.4 43.5 86.1 227.8 254.2 883.1
08/05 06:50 26.4 85 21.16 23.7 39 44 1013 0.2 45.4 43.5 86.1 227.8 254.2 883.1
08/05 06:40 26.3 85 21.04 23.6 39 44 1012.9 0.2 45.2 43.3 85.6 226.5 252.6 877.5
08/05 06:30 26.4 86 21.41 23.9 41 48 1012.8 0.2 45.9 44.0 87.3 231.0 258.1 896.8
08/05 06:20 26.3 85 21.04 23.6 39 43 1012.9 0.2 45.2 43.3 85.6 226.5 252.6 877.5
08/05 06:10 26.2 85 20.93 23.5 41 43 1012.6 0.2 44.9 43.1 85.1 225.3 251.1 872.4
08/05 06:00 26.1 85 20.81 23.4 39 46 1012.4 0.2 44.7 42.9 84.7 224.1 249.5 866.8
08/05 05:50 26.2 85 20.93 23.5 44 48 1012.4 0.2 44.9 43.1 85.1 225.3 251.1 872.3
08/05 05:40 26.2 86 21.17 23.7 43 48 1012.3 0.2 45.4 43.6 86.3 228.4 254.9 885.6
08/05 05:30 26.1 87 21.3 23.8 41 48 1012.2 0.2 45.7 43.9 87.0 230.4 257.3 893.9
08/05 05:20 26 88 21.42 23.9 43 46 1012.2 0.2 46.0 44.2 87.8 232.3 259.6 901.9
08/05 05:10 26 87 21.18 23.7 43 44 1012.2 0.2 45.5 43.7 86.6 229.1 255.7 888.4
08/05 05:00 26.3 85 21.04 23.6 39 46 1012.4 0.2 45.2 43.3 85.5 226.4 252.5 877.2
08/05 04:50 26.3 85 21.04 23.6 37 43 1012.5 0.2 45.2 43.3 85.6 226.5 252.5 877.3
08/05 04:40 26.4 85 21.16 23.7 39 43 1012.4 0.2 45.4 43.5 86.0 227.7 254.1 882.7
08/05 04:30 26.2 85 20.93 23.5 39 46 1012.2 0.2 44.9 43.1 85.1 225.3 251.0 872.2
08/05 04:20 26.3 85 21.04 23.6 41 44 1012.1 0.2 45.2 43.3 85.5 226.4 252.4 877.1
08/05 04:10 26.2 84 20.68 23.3 43 46 1012.1 0.2 44.4 42.6 83.9 222.0 247.1 858.4
08/05 04:00 26.4 86 21.41 23.9 43 50 1011.9 0.2 45.9 43.9 87.2 230.9 258.0 896.3
08/05 03:50 26.4 86 21.41 23.9 41 43 1011.5 0.2 45.9 43.9 87.2 230.8 257.9 896.1
08/05 03:40 26.2 84 20.68 23.3 43 48 1011.5 0.2 44.4 42.6 83.8 221.9 247.0 858.0
08/05 03:30 26.1 84 20.56 23.2 43 50 1011.6 0.2 44.2 42.4 83.4 220.7 245.4 852.6
08/05 03:20 26.2 85 20.93 23.5 41 46 1011.8 0.2 44.9 43.1 85.1 225.2 251.0 872.0
08/05 03:10 26.1 86 21.05 23.6 44 50 1011.7 0.2 45.2 43.4 85.8 227.1 253.2 879.7
08/05 03:00 26.2 85 20.93 23.5 44 52 1011.6 0.2 44.9 43.1 85.1 225.2 250.9 871.8
08/05 02:50 26.2 85 20.93 23.5 46 50 1011.5 0.2 44.9 43.1 85.1 225.2 250.9 871.8
08/05 02:40 26.3 87 21.54 24 41 48 1011.5 0.2 46.2 44.2 87.9 232.8 260.3 904.5
08/05 02:30 26 86 20.94 23.5 43 52 1011.6 0.2 45.0 43.2 85.3 225.9 251.8 874.7
08/05 02:20 26 87 21.18 23.7 46 48 1011.5 0 45.5 43.7 86.5 229.0 255.6 888.0
08/05 02:10 25.9 87 21.06 23.6 43 48 1011.5 0 45.3 43.5 86.0 227.8 254.0 882.5
08/05 02:00 25.9 87 21.06 23.6 44 52 1011.6 0 45.3 43.5 86.0 227.8 254.0 882.6
08/05 01:50 25.7 87 20.83 23.4 48 52 1011.6 0 44.8 43.2 85.1 225.4 251.0 872.1
08/05 01:40 25.7 89 21.31 23.7 46 54 1011.7 0 45.8 44.1 87.5 231.7 258.8 899.0
08/05 01:30 25.6 90 21.43 23.8 44 56 1011.9 0 46.1 44.4 88.3 233.6 261.1 907.1
08/05 01:20 25.8 90 21.67 24 50 54 1011.8 0 46.6 44.8 89.2 236.2 264.3 918.1
08/05 01:10 25.8 91 21.91 24.2 43 46 1011.8 0 47.1 45.3 90.4 239.4 268.2 931.8
08/05 01:00 25.6 91 21.66 24 41 48 1012 0 46.6 44.9 89.4 236.7 264.9 920.2
08/05 00:50 25.6 90 21.43 23.8 43 48 1012.2 0 46.1 44.4 88.3 233.7 261.2 907.3
08/05 00:40 25.9 89 21.55 23.9 46 50 1012.2 0 46.3 44.5 88.5 234.3 262.0 910.4
08/05 00:30 26.2 89 21.91 24.2 43 48 1012.1 0 47.0 45.1 89.9 238.1 266.8 927.0
08/05 00:20 26.2 86 21.17 23.7 43 46 1012.3 0 45.4 43.6 86.3 228.4 254.9 885.6
08/05 00:10 26 86 20.94 23.5 43 46 1012.6 0 45.0 43.3 85.4 226.1 251.9 875.3
08/05 00:00 26.2 89 21.91 24.2 44 52 1012.7 0 47.0 45.1 90.0 238.2 266.9 927.3
07/05 23:50 26 86 20.94 23.5 46 54 1012.7 0 45.0 43.3 85.4 226.1 252.0 875.4
07/05 23:40 26.2 87 21.42 23.9 41 46 1012.8 0 46.0 44.1 87.6 231.8 259.0 899.8
07/05 23:30 25.9 85 20.58 23.2 43 50 1012.8 0 44.2 42.6 83.8 221.7 246.6 856.7
07/05 23:20 26.6 86 21.65 24.1 41 46 1012.8 0 46.4 44.4 88.2 233.6 261.3 907.8
07/05 23:10 26.7 85 21.52 24 43 46 1012.9 0 46.1 44.0 87.5 231.6 258.9 899.4
07/05 23:00 26.8 84 21.38 23.9 39 44 1013 0 45.8 43.7 86.7 229.4 256.3 890.5
07/05 22:50 26.5 82 20.53 23.2 37 43 1013.1 0 44.0 42.2 82.9 219.4 243.9 847.3
07/05 22:40 26.7 85 21.52 24 37 41 1013.1 0 46.1 44.1 87.5 231.6 258.9 899.6
07/05 22:30 26.5 84 21.03 23.6 39 46 1013.1 0 45.1 43.2 85.3 225.8 251.8 874.8
07/05 22:20 26.8 85 21.64 24.1 39 43 1013.2 0 46.4 44.2 88.0 232.9 260.5 905.1
07/05 22:10 26.7 84 21.26 23.8 41 46 1013.2 0 45.6 43.5 86.2 228.2 254.8 885.2
07/05 22:00 26.8 85 21.64 24.1 39 43 1013.3 0 46.4 44.2 88.0 232.9 260.5 905.2
07/05 21:50 26.7 84 21.26 23.8 41 43 1013.4 0 45.6 43.6 86.2 228.3 254.8 885.3
07/05 21:40 26.7 84 21.26 23.8 43 46 1013.4 0 45.6 43.6 86.2 228.3 254.8 885.3
07/05 21:30 26.8 84 21.38 23.9 39 46 1013.5 0 45.8 43.7 86.7 229.5 256.4 890.8
07/05 21:20 26.7 84 21.26 23.8 41 46 1013.4 0 45.6 43.6 86.2 228.3 254.8 885.3
07/05 21:10 26.7 83 21.01 23.6 43 46 1013.5 0 45.0 43.1 85.0 225.0 250.8 871.6
07/05 21:00 26.7 85 21.52 24 39 44 1013.4 0 46.1 44.1 87.5 231.6 258.9 899.7
07/05 20:50 26.8 85 21.64 24.1 35 41 1013.4 0 46.4 44.3 88.0 232.9 260.5 905.2
07/05 20:40 26.8 85 21.64 24.1 37 43 1013.4 0 46.4 44.3 88.0 232.9 260.5 905.2
07/05 20:30 26.9 86 22.01 24.4 35 43 1013.3 0 47.1 44.9 89.7 237.4 266.1 924.6
07/05 20:20 27.1 85 22 24.4 32 37 1013.3 0 47.1 44.8 89.4 236.7 265.2 921.6
07/05 20:10 26.9 83 21.24 23.8 35 37 1013.2 0 45.5 43.4 85.9 227.4 253.7 881.7

Last Refresh: 08-May-2026 12:10:20

Bureau of Meteorology